Time;durP1;ratioP1;P1;durP2;ratioP2;P2;SDS_P1;SDS_P2;PMS_P1;PMS_P2;Temp;Humidity;BMP_temperature;BMP_pressure;BME280_temperature;BME280_humidity;BME280_pressure;Samples;Min_cycle;Max_cycle;Signal;HPM_P1;HPM_P2
2020/12/13 00:01:58;;;;;;;;;;;21.50;55.50;;;;;;5065431;28;1239;-64
2020/12/13 00:04:24;;;;;;;;;;;21.50;55.50;;;;;;5073196;28;1239;-65
2020/12/13 00:06:49;;;;;;;;;;;21.50;55.60;;;;;;5072856;28;1388;-64
2020/12/13 00:09:15;;;;;;;;;;;21.50;55.60;;;;;;5055211;28;1296;-65
2020/12/13 00:11:40;;;;;;;;;;;21.40;55.60;;;;;;5055375;28;1315;-64
2020/12/13 00:14:06;;;;;;;;;;;21.40;55.60;;;;;;5073056;28;1279;-64
2020/12/13 00:16:31;;;;;;;;;;;21.40;55.70;;;;;;5054483;28;1902;-65
2020/12/13 00:18:57;;;;;;;;;;;21.40;55.70;;;;;;5073072;28;1307;-63
2020/12/13 00:21:28;;;;;;;;;;;21.40;55.70;;;;;;5072930;28;1327;-65
2020/12/13 00:23:54;;;;;;;;;;;21.30;55.70;;;;;;5055612;28;1337;-64
2020/12/13 00:26:19;;;;;;;;;;;21.40;55.80;;;;;;5073203;28;1263;-64
2020/12/13 00:28:45;;;;;;;;;;;21.40;56.40;;;;;;5054712;28;1451;-65
2020/12/13 00:31:13;;;;;;;;;;;21.30;55.80;;;;;;5071084;28;1262;-64
2020/12/13 00:33:39;;;;;;;;;;;21.30;55.80;;;;;;5072254;28;1494;-64
2020/12/13 00:36:04;;;;;;;;;;;21.30;55.80;;;;;;5054616;28;1967;-64
2020/12/13 00:38:30;;;;;;;;;;;21.30;55.80;;;;;;5072516;28;1325;-64
2020/12/13 00:40:55;;;;;;;;;;;21.30;55.90;;;;;;5054429;28;1350;-65
2020/12/13 00:43:21;;;;;;;;;;;21.30;55.90;;;;;;5072462;28;1256;-64
2020/12/13 00:45:46;;;;;;;;;;;21.30;55.90;;;;;;5054392;28;1298;-65
2020/12/13 00:48:12;;;;;;;;;;;21.30;55.90;;;;;;5054051;28;1354;-65
2020/12/13 00:50:38;;;;;;;;;;;21.30;55.90;;;;;;5054075;28;1351;-64
2020/12/13 00:53:04;;;;;;;;;;;21.30;56.00;;;;;;5054455;28;1388;-64
2020/12/13 00:55:29;;;;;;;;;;;21.20;55.90;;;;;;5071879;28;1914;-64
2020/12/13 00:57:55;;;;;;;;;;;21.20;56.00;;;;;;5072265;28;1260;-65
2020/12/13 01:00:20;;;;;;;;;;;21.20;56.00;;;;;;5063698;28;1275;-65
2020/12/13 01:02:45;;;;;;;;;;;21.20;56.00;;;;;;5053227;28;1302;-64
2020/12/13 01:05:11;;;;;;;;;;;21.20;56.10;;;;;;5053918;28;1270;-65
2020/12/13 01:07:36;;;;;;;;;;;21.20;56.10;;;;;;5071872;28;1307;-65
2020/12/13 01:10:02;;;;;;;;;;;21.20;56.10;;;;;;5071909;28;1268;-64
2020/12/13 01:12:28;;;;;;;;;;;21.20;56.10;;;;;;5072032;28;1343;-64
2020/12/13 01:14:53;;;;;;;;;;;21.20;56.10;;;;;;5063433;28;1238;-65
2020/12/13 01:17:19;;;;;;;;;;;21.20;56.10;;;;;;5071559;28;1973;-65
2020/12/13 01:19:47;;;;;;;;;;;21.20;56.20;;;;;;5070328;28;1258;-64
2020/12/13 01:22:12;;;;;;;;;;;21.20;56.20;;;;;;5071898;28;1263;-64
2020/12/13 01:24:38;;;;;;;;;;;21.20;56.20;;;;;;5053352;28;1338;-65
2020/12/13 01:27:03;;;;;;;;;;;21.10;56.70;;;;;;5053351;28;1283;-64
2020/12/13 01:29:29;;;;;;;;;;;21.10;56.20;;;;;;5071960;28;1404;-64
2020/12/13 01:31:54;;;;;;;;;;;21.10;56.20;;;;;;5071195;28;1282;-64
2020/12/13 01:34:20;;;;;;;;;;;21.10;56.20;;;;;;5071043;28;992;-64
2020/12/13 01:36:45;;;;;;;;;;;21.10;56.30;;;;;;5071008;28;1910;-64
2020/12/13 01:39:10;;;;;;;;;;;21.10;56.20;;;;;;5071574;28;1258;-64
2020/12/13 01:41:36;;;;;;;;;;;21.10;56.30;;;;;;5053975;28;1222;-65
2020/12/13 01:44:04;;;;;;;;;;;21.10;56.30;;;;;;5071858;28;1259;-65
2020/12/13 01:46:30;;;;;;;;;;;21.10;56.30;;;;;;5053310;28;1278;-65
2020/12/13 01:49:02;;;;;;;;;;;21.10;56.30;;;;;;5053573;28;1346;-65
2020/12/13 01:51:43;;;;;;;;;;;21.10;56.30;;;;;;5054190;28;1437;-65
2020/12/13 01:54:10;;;;;;;;;;;21.10;56.40;;;;;;5070875;28;1305;-65
2020/12/13 01:56:35;;;;;;;;;;;21.00;56.30;;;;;;5071315;28;1974;-64
2020/12/13 01:59:01;;;;;;;;;;;21.00;56.30;;;;;;5054006;28;1356;-64
2020/12/13 02:01:26;;;;;;;;;;;21.00;56.40;;;;;;5044404;28;1112;-65
2020/12/13 02:03:53;;;;;;;;;;;21.00;56.40;;;;;;5053622;28;1481;-65
2020/12/13 02:06:22;;;;;;;;;;;21.00;56.40;;;;;;5053346;28;1341;-65
2020/12/13 02:08:49;;;;;;;;;;;21.00;56.40;;;;;;5053638;28;1283;-65
2020/12/13 02:11:14;;;;;;;;;;;21.00;56.40;;;;;;5028047;28;1220;-65
2020/12/13 02:13:40;;;;;;;;;;;21.00;56.40;;;;;;5042708;28;1271;-65
2020/12/13 02:16:06;;;;;;;;;;;21.00;56.50;;;;;;5052409;28;1902;-64
2020/12/13 02:18:31;;;;;;;;;;;21.00;56.50;;;;;;5053638;28;1280;-64
2020/12/13 02:20:57;;;;;;;;;;;21.00;56.50;;;;;;5053110;28;1348;-65
2020/12/13 02:23:22;;;;;;;;;;;21.00;56.50;;;;;;5071035;28;1381;-65
2020/12/13 02:25:48;;;;;;;;;;;21.00;56.50;;;;;;5070950;28;1271;-64
2020/12/13 02:28:13;;;;;;;;;;;21.00;56.40;;;;;;5036478;28;1346;-65
2020/12/13 02:30:39;;;;;;;;;;;21.00;56.40;;;;;;5072241;28;1318;-65
2020/12/13 02:33:05;;;;;;;;;;;21.00;56.40;;;;;;5055871;28;1494;-64
2020/12/13 02:35:30;;;;;;;;;;;21.00;56.30;;;;;;5053481;28;1906;-64
2020/12/13 02:37:56;;;;;;;;;;;21.00;56.20;;;;;;5065973;28;1296;-64
2020/12/13 02:40:21;;;;;;;;;;;21.00;56.20;;;;;;5039121;28;1366;-65
2020/12/13 02:42:47;;;;;;;;;;;21.10;56.20;;;;;;5046114;28;1352;-64
2020/12/13 02:45:12;;;;;;;;;;;21.10;56.20;;;;;;5033632;28;1305;-65
2020/12/13 02:47:38;;;;;;;;;;;21.10;56.10;;;;;;5017641;28;1290;-65
2020/12/13 02:50:03;;;;;;;;;;;21.20;56.10;;;;;;5035794;28;1368;-64
2020/12/13 02:52:29;;;;;;;;;;;21.20;55.90;;;;;;5037200;28;1430;-65
2020/12/13 02:54:54;;;;;;;;;;;21.30;55.80;;;;;;5036509;28;1435;-65
2020/12/13 02:57:23;;;;;;;;;;;21.40;55.70;;;;;;5036237;28;1910;-65
2020/12/13 02:59:48;;;;;;;;;;;21.50;55.60;;;;;;5034849;28;1315;-64
2020/12/13 03:02:14;;;;;;;;;;;21.50;55.40;;;;;;5035829;28;1420;-66
2020/12/13 03:04:39;;;;;;;;;;;21.60;55.30;;;;;;5045472;28;1427;-65
2020/12/13 03:07:04;;;;;;;;;;;21.60;55.00;;;;;;5014190;28;1352;-65
2020/12/13 03:09:30;;;;;;;;;;;21.70;55.00;;;;;;5028643;28;1383;-65
2020/12/13 03:11:55;;;;;;;;;;;21.70;54.80;;;;;;5047015;28;1279;-64
2020/12/13 03:14:21;;;;;;;;;;;21.80;54.70;;;;;;5045500;28;1271;-65
2020/12/13 03:16:46;;;;;;;;;;;21.80;54.50;;;;;;5028319;28;1957;-65
2020/12/13 03:19:12;;;;;;;;;;;21.90;54.50;;;;;;5029015;28;1296;-64
2020/12/13 03:21:37;;;;;;;;;;;21.90;54.40;;;;;;5028944;28;1268;-64
2020/12/13 03:24:03;;;;;;;;;;;22.00;54.30;;;;;;5012588;28;1264;-64
2020/12/13 03:26:28;;;;;;;;;;;22.00;54.20;;;;;;5045400;28;1212;-64
2020/12/13 03:28:54;;;;;;;;;;;22.00;54.20;;;;;;5030775;28;1359;-65
2020/12/13 03:31:19;;;;;;;;;;;22.10;54.10;;;;;;5048303;28;1264;-65
2020/12/13 03:33:46;;;;;;;;;;;22.10;54.10;;;;;;5049321;28;1267;-65
2020/12/13 03:36:12;;;;;;;;;;;22.10;54.00;;;;;;5028507;28;1894;-66
2020/12/13 03:38:37;;;;;;;;;;;22.10;54.00;;;;;;5044812;28;1129;-65
2020/12/13 03:41:03;;;;;;;;;;;22.20;53.90;;;;;;5062111;28;1279;-64
2020/12/13 03:43:28;;;;;;;;;;;22.20;53.90;;;;;;5029648;28;1323;-65
2020/12/13 03:45:54;;;;;;;;;;;22.20;53.80;;;;;;5065573;28;1247;-65
2020/12/13 03:48:19;;;;;;;;;;;22.20;53.80;;;;;;5065341;28;1243;-65
2020/12/13 03:50:45;;;;;;;;;;;22.20;53.80;;;;;;5064965;28;1376;-64
2020/12/13 03:53:11;;;;;;;;;;;22.20;53.80;;;;;;5064469;28;1294;-65
2020/12/13 03:55:37;;;;;;;;;;;22.30;53.70;;;;;;5047063;28;1918;-66
2020/12/13 03:58:02;;;;;;;;;;;22.30;53.70;;;;;;5046158;28;1160;-64
2020/12/13 04:00:28;;;;;;;;;;;22.30;53.70;;;;;;5045245;28;1284;-64
2020/12/13 04:02:54;;;;;;;;;;;22.30;53.70;;;;;;5042984;28;1243;-65
2020/12/13 04:05:20;;;;;;;;;;;22.30;53.60;;;;;;5068347;28;1314;-64
2020/12/13 04:07:46;;;;;;;;;;;22.30;53.60;;;;;;5040589;28;1303;-65
2020/12/13 04:10:11;;;;;;;;;;;22.40;53.60;;;;;;5074850;28;1263;-65
2020/12/13 04:12:37;;;;;;;;;;;22.40;53.60;;;;;;5074729;28;1343;-65
2020/12/13 04:15:02;;;;;;;;;;;22.40;53.60;;;;;;5073827;28;1212;-64
2020/12/13 04:17:28;;;;;;;;;;;22.40;53.50;;;;;;5056669;28;1906;-65
2020/12/13 04:19:53;;;;;;;;;;;22.40;53.50;;;;;;5075071;28;1313;-65
2020/12/13 04:22:19;;;;;;;;;;;22.40;54.10;;;;;;5056915;28;1374;-65
2020/12/13 04:24:44;;;;;;;;;;;22.40;53.50;;;;;;5073968;28;1285;-65
2020/12/13 04:27:10;;;;;;;;;;;22.40;53.40;;;;;;5074273;28;1403;-66
2020/12/13 04:29:35;;;;;;;;;;;22.50;53.50;;;;;;5039922;28;1371;-65
2020/12/13 04:32:00;;;;;;;;;;;22.50;53.40;;;;;;5040130;28;1392;-65
2020/12/13 04:34:26;;;;;;;;;;;22.50;53.40;;;;;;5073489;28;1374;-64
2020/12/13 04:36:51;;;;;;;;;;;22.50;53.40;;;;;;5073949;28;1981;-65
2020/12/13 04:39:17;;;;;;;;;;;22.50;53.40;;;;;;5056739;28;1374;-64
2020/12/13 04:41:42;;;;;;;;;;;22.50;53.40;;;;;;5055787;28;1358;-64
2020/12/13 04:44:08;;;;;;;;;;;22.50;53.40;;;;;;5073774;28;1287;-65
2020/12/13 04:46:33;;;;;;;;;;;22.50;53.30;;;;;;5056353;28;1302;-65
2020/12/13 04:48:59;;;;;;;;;;;22.50;53.30;;;;;;5056681;28;1280;-65
2020/12/13 04:51:25;;;;;;;;;;;22.60;53.40;;;;;;5074109;28;1391;-65
2020/12/13 04:53:50;;;;;;;;;;;22.60;53.30;;;;;;5039350;28;1334;-65
2020/12/13 04:56:16;;;;;;;;;;;22.60;53.30;;;;;;5055707;28;1910;-64
2020/12/13 04:58:41;;;;;;;;;;;22.60;53.30;;;;;;5056252;28;1309;-64
2020/12/13 05:01:07;;;;;;;;;;;22.60;53.30;;;;;;5055944;28;1453;-64
2020/12/13 05:03:34;;;;;;;;;;;22.60;53.30;;;;;;5056784;28;1540;-65
2020/12/13 05:06:01;;;;;;;;;;;22.60;53.30;;;;;;5066999;28;1630;-63
2020/12/13 05:08:27;;;;;;;;;;;22.60;53.30;;;;;;5072011;28;1336;-64
2020/12/13 05:10:52;;;;;;;;;;;22.60;53.20;;;;;;5069220;28;1393;-64
2020/12/13 05:13:17;;;;;;;;;;;22.60;53.20;;;;;;5048276;28;1419;-64
2020/12/13 05:15:43;;;;;;;;;;;22.70;53.20;;;;;;5070694;28;1897;-64
2020/12/13 05:18:08;;;;;;;;;;;22.70;53.20;;;;;;5072185;28;1299;-64
2020/12/13 05:20:34;;;;;;;;;;;22.70;53.20;;;;;;5073135;28;1366;-63
2020/12/13 05:23:01;;;;;;;;;;;22.70;53.20;;;;;;5056078;28;1313;-62
2020/12/13 05:25:30;;;;;;;;;;;22.70;53.20;;;;;;5054463;28;1324;-63
2020/12/13 05:27:56;;;;;;;;;;;22.70;53.20;;;;;;5054759;28;1369;-63
2020/12/13 05:30:26;;;;;;;;;;;22.70;53.20;;;;;;5054068;28;1374;-63
2020/12/13 05:32:56;;;;;;;;;;;22.70;53.20;;;;;;5054052;28;1274;-63
2020/12/13 05:35:21;;;;;;;;;;;22.70;53.20;;;;;;5059309;28;1901;-63
2020/12/13 05:37:47;;;;;;;;;;;22.70;53.20;;;;;;5053984;28;1392;-64
2020/12/13 05:40:15;;;;;;;;;;;22.70;53.20;;;;;;5071636;28;1263;-63
2020/12/13 05:42:42;;;;;;;;;;;22.70;53.20;;;;;;5054188;28;1346;-63
2020/12/13 05:45:26;;;;;;;;;;;22.70;53.20;;;;;;5053650;28;1454;-63
2020/12/13 05:50:49;;;;;;;;;;;22.70;53.30;;;;;;5072391;28;1406;-64
2020/12/13 05:53:14;;;;;;;;;;;22.60;53.40;;;;;;5072197;28;1151;-64
2020/12/13 05:55:40;;;;;;;;;;;22.60;53.30;;;;;;5052827;28;1922;-63
2020/12/13 05:58:05;;;;;;;;;;;22.60;53.40;;;;;;5053071;28;1255;-64
2020/12/13 06:00:31;;;;;;;;;;;22.60;54.00;;;;;;5053527;28;1319;-64
2020/12/13 06:02:56;;;;;;;;;;;22.60;53.40;;;;;;5052878;28;1280;-63
2020/12/13 06:05:22;;;;;;;;;;;22.60;53.50;;;;;;5053350;28;1362;-64
2020/12/13 06:07:48;;;;;;;;;;;22.50;53.50;;;;;;5076697;28;1338;-61
2020/12/13 06:10:17;;;;;;;;;;;22.50;53.60;;;;;;5058569;28;1318;-62
2020/12/13 06:12:42;;;;;;;;;;;22.50;53.60;;;;;;5056707;28;1291;-63
2020/12/13 06:15:08;;;;;;;;;;;22.50;53.70;;;;;;5056310;28;1375;-63
2020/12/13 06:17:33;;;;;;;;;;;22.50;53.70;;;;;;5055807;28;1894;-62
2020/12/13 06:19:59;;;;;;;;;;;22.40;53.70;;;;;;5074553;28;1358;-63
2020/12/13 06:22:24;;;;;;;;;;;22.40;53.80;;;;;;5074323;28;1309;-63
2020/12/13 06:24:50;;;;;;;;;;;22.40;53.80;;;;;;5073507;28;1332;-63
2020/12/13 06:27:18;;;;;;;;;;;22.40;53.90;;;;;;5056798;28;1341;-63
2020/12/13 06:29:44;;;;;;;;;;;22.40;53.90;;;;;;5058008;28;1303;-63
2020/12/13 06:32:09;;;;;;;;;;;22.40;54.00;;;;;;5053129;28;2298;-63
2020/12/13 06:34:35;;;;;;;;;;;22.30;54.00;;;;;;5073482;28;929;-64
2020/12/13 06:37:01;;;;;;;;;;;22.30;54.10;;;;;;5075192;28;1901;-62
2020/12/13 06:39:26;;;;;;;;;;;22.30;54.10;;;;;;5075726;28;1382;-61
2020/12/13 06:41:52;;;;;;;;;;;22.30;54.10;;;;;;5075569;28;1405;-62
2020/12/13 06:44:18;;;;;;;;;;;22.30;54.20;;;;;;5075222;28;1375;-62
2020/12/13 06:46:44;;;;;;;;;;;22.30;54.20;;;;;;5075238;28;1329;-63
2020/12/13 06:49:10;;;;;;;;;;;22.20;54.20;;;;;;5057364;28;1320;-62
2020/12/13 06:51:36;;;;;;;;;;;22.20;54.30;;;;;;5075459;28;1312;-62
2020/12/13 06:54:03;;;;;;;;;;;22.20;54.30;;;;;;5075169;28;1380;-63
2020/12/13 06:56:29;;;;;;;;;;;22.20;54.40;;;;;;5056824;28;1906;-61
2020/12/13 06:58:55;;;;;;;;;;;22.20;54.40;;;;;;5057656;28;1305;-62
2020/12/13 07:01:21;;;;;;;;;;;22.10;54.40;;;;;;5074882;28;1267;-63
2020/12/13 07:03:47;;;;;;;;;;;22.10;54.40;;;;;;5074996;28;1275;-61
2020/12/13 07:06:33;;;;;;;;;;;22.10;54.50;;;;;;5074924;28;1267;-62
2020/12/13 07:09:00;;;;;;;;;;;22.10;54.50;;;;;;5059953;28;1374;-62
2020/12/13 07:11:28;;;;;;;;;;;22.10;54.50;;;;;;5057514;28;1323;-60
2020/12/13 07:14:04;;;;;;;;;;;22.10;54.60;;;;;;5074207;28;1270;-64
2020/12/13 07:16:34;;;;;;;;;;;22.10;54.70;;;;;;5075145;28;1902;-62
2020/12/13 07:19:01;;;;;;;;;;;22.00;54.60;;;;;;5041596;28;1297;-62
2020/12/13 07:21:27;;;;;;;;;;;22.00;54.70;;;;;;5057244;28;1376;-62
2020/12/13 07:23:52;;;;;;;;;;;22.00;54.70;;;;;;5056484;28;1187;-60
2020/12/13 07:26:18;;;;;;;;;;;22.00;54.70;;;;;;5074201;28;1358;-63
2020/12/13 07:28:43;;;;;;;;;;;21.90;54.70;;;;;;5056632;28;1294;-60
2020/12/13 07:31:09;;;;;;;;;;;21.90;54.80;;;;;;5057026;28;1354;-61
2020/12/13 07:33:34;;;;;;;;;;;21.90;54.80;;;;;;5051889;28;1382;-61
2020/12/13 07:36:00;;;;;;;;;;;21.90;54.90;;;;;;5067578;28;1909;-61
2020/12/13 07:38:25;;;;;;;;;;;21.90;54.90;;;;;;5056355;28;1397;-62
2020/12/13 07:40:51;;;;;;;;;;;21.90;54.90;;;;;;5074130;28;1303;-62
2020/12/13 07:43:16;;;;;;;;;;;21.80;54.90;;;;;;5074773;28;1310;-62
2020/12/13 07:45:42;;;;;;;;;;;21.80;54.90;;;;;;5074831;28;1303;-61
2020/12/13 07:48:07;;;;;;;;;;;21.80;55.00;;;;;;5073616;28;1420;-59
2020/12/13 07:50:46;;;;;;;;;;;21.90;55.10;;;;;;5056492;28;1362;-62
2020/12/13 07:53:11;;;;;;;;;;;21.80;55.10;;;;;;5074490;28;1345;-60
2020/12/13 07:55:43;;;;;;;;;;;21.80;55.10;;;;;;5056422;28;1902;-63
2020/12/13 07:58:08;;;;;;;;;;;21.80;55.10;;;;;;5074055;28;1247;-60
2020/12/13 08:00:34;;;;;;;;;;;21.70;55.00;;;;;;5074109;28;1371;-62
2020/12/13 08:03:00;;;;;;;;;;;21.70;55.10;;;;;;5056192;28;1303;-62
2020/12/13 08:05:26;;;;;;;;;;;21.70;55.20;;;;;;5073970;28;1326;-60
2020/12/13 08:07:58;;;;;;;;;;;21.70;55.20;;;;;;5055860;28;1315;-62
2020/12/13 08:10:24;;;;;;;;;;;21.70;55.20;;;;;;5074087;28;1342;-61
2020/12/13 08:12:51;;;;;;;;;;;21.70;55.30;;;;;;5071646;28;1350;-62
2020/12/13 08:15:18;;;;;;;;;;;21.70;55.20;;;;;;5051548;28;1308;-62
2020/12/13 08:17:44;;;;;;;;;;;21.70;55.20;;;;;;5073731;28;1965;-63
2020/12/13 08:20:09;;;;;;;;;;;21.70;55.10;;;;;;5055579;28;1401;-64
2020/12/13 08:22:35;;;;;;;;;;;21.80;55.10;;;;;;5055610;28;1529;-61
2020/12/13 08:25:01;;;;;;;;;;;21.80;55.00;;;;;;5055657;28;1361;-62
2020/12/13 08:27:30;;;;;;;;;;;21.90;55.00;;;;;;5047014;28;1111;-63
2020/12/13 08:29:58;;;;;;;;;;;21.90;54.90;;;;;;5068851;28;1321;-61
2020/12/13 08:32:24;;;;;;;;;;;22.00;54.80;;;;;;5073417;28;1281;-63
2020/12/13 08:34:49;;;;;;;;;;;22.00;54.60;;;;;;5042448;28;1375;-61
2020/12/13 08:37:21;;;;;;;;;;;22.10;54.60;;;;;;5055321;28;1963;-62
2020/12/13 08:39:46;;;;;;;;;;;22.10;54.50;;;;;;5055627;28;1299;-62
2020/12/13 08:42:20;;;;;;;;;;;22.10;54.40;;;;;;5073195;28;1634;-63
2020/12/13 08:44:45;;;;;;;;;;;22.20;54.30;;;;;;5072685;28;1325;-62
2020/12/13 08:47:11;;;;;;;;;;;22.20;54.20;;;;;;5055225;28;1483;-62
2020/12/13 08:49:37;;;;;;;;;;;22.20;54.20;;;;;;5055252;28;1312;-63
2020/12/13 08:52:16;;;;;;;;;;;22.20;54.20;;;;;;5055554;28;1313;-62
2020/12/13 08:54:45;;;;;;;;;;;22.20;54.10;;;;;;5055109;28;1418;-62
2020/12/13 08:57:11;;;;;;;;;;;22.30;54.10;;;;;;5072252;28;1906;-62
2020/12/13 08:59:36;;;;;;;;;;;22.30;54.10;;;;;;5055415;28;1335;-63
2020/12/13 09:02:03;;;;;;;;;;;22.30;54.10;;;;;;5072673;28;1283;-60
2020/12/13 09:04:30;;;;;;;;;;;22.30;54.10;;;;;;5072242;28;1319;-62
2020/12/13 09:07:00;;;;;;;;;;;22.30;54.10;;;;;;5072309;28;1278;-61
2020/12/13 09:09:29;;;;;;;;;;;22.30;54.10;;;;;;5055002;28;1362;-61
2020/12/13 09:11:54;;;;;;;;;;;22.30;54.10;;;;;;5054730;28;1339;-63
2020/12/13 09:14:26;;;;;;;;;;;22.30;54.10;;;;;;5065670;28;1187;-61
2020/12/13 09:16:51;;;;;;;;;;;22.20;54.10;;;;;;5072468;28;1907;-61
2020/12/13 09:19:17;;;;;;;;;;;22.20;54.10;;;;;;5055085;28;1339;-63
2020/12/13 09:21:46;;;;;;;;;;;22.20;54.10;;;;;;5054714;28;1344;-63
2020/12/13 09:24:12;;;;;;;;;;;22.20;54.10;;;;;;5053833;28;1095;-62
2020/12/13 09:26:37;;;;;;;;;;;22.20;54.20;;;;;;5072015;28;1362;-62
2020/12/13 09:29:03;;;;;;;;;;;22.20;54.20;;;;;;5054650;28;1284;-64
2020/12/13 09:31:28;;;;;;;;;;;22.20;54.20;;;;;;5054611;28;1340;-62
2020/12/13 09:33:54;;;;;;;;;;;22.20;54.30;;;;;;5064779;28;1355;-62
2020/12/13 09:36:19;;;;;;;;;;;22.10;54.30;;;;;;5066953;28;1906;-62
2020/12/13 09:38:45;;;;;;;;;;;22.10;54.30;;;;;;5072464;28;1933;-62
2020/12/13 09:41:16;;;;;;;;;;;22.10;54.30;;;;;;5071458;28;1130;-62
2020/12/13 09:43:41;;;;;;;;;;;22.20;54.40;;;;;;5071944;28;1293;-63
2020/12/13 09:46:07;;;;;;;;;;;22.10;54.30;;;;;;5053920;28;1323;-63
2020/12/13 09:48:32;;;;;;;;;;;22.20;54.40;;;;;;5054250;28;1363;-62
2020/12/13 09:50:58;;;;;;;;;;;22.10;54.30;;;;;;5072321;28;1328;-63
2020/12/13 09:53:23;;;;;;;;;;;22.10;54.30;;;;;;5071960;28;1301;-64
2020/12/13 09:55:49;;;;;;;;;;;22.20;54.40;;;;;;5071763;28;1980;-63
2020/12/13 09:58:14;;;;;;;;;;;22.20;54.30;;;;;;5072246;28;1296;-62
2020/12/13 10:00:40;;;;;;;;;;;22.20;54.30;;;;;;5072175;28;1345;-62
2020/12/13 10:03:06;;;;;;;;;;;22.20;54.30;;;;;;5053826;28;1489;-62
2020/12/13 10:05:41;;;;;;;;;;;22.20;54.20;;;;;;5071680;28;1335;-62
2020/12/13 10:10:50;;;;;;;;;;;22.20;54.20;;;;;;5071919;28;1333;-63
2020/12/13 10:13:16;;;;;;;;;;;22.20;54.20;;;;;;5071895;28;1330;-63
2020/12/13 10:15:41;;;;;;;;;;;22.20;54.10;;;;;;5071690;28;1954;-62
2020/12/13 10:18:07;;;;;;;;;;;22.30;54.10;;;;;;5071658;28;1333;-62
2020/12/13 10:20:32;;;;;;;;;;;22.30;54.10;;;;;;5071641;28;1402;-63
2020/12/13 10:22:58;;;;;;;;;;;22.30;54.10;;;;;;5053859;28;1305;-61
2020/12/13 10:25:23;;;;;;;;;;;22.30;54.10;;;;;;5053501;28;1671;-62
2020/12/13 10:27:49;;;;;;;;;;;22.20;54.10;;;;;;5072268;28;1277;-63
2020/12/13 10:30:14;;;;;;;;;;;22.30;54.10;;;;;;5071823;28;1368;-64
2020/12/13 10:32:39;;;;;;;;;;;22.30;54.10;;;;;;5071698;28;1239;-61
2020/12/13 10:35:05;;;;;;;;;;;22.20;54.10;;;;;;5066315;28;1445;-61
2020/12/13 10:37:30;;;;;;;;;;;22.30;54.20;;;;;;5052698;28;1965;-62
2020/12/13 10:39:56;;;;;;;;;;;22.20;54.10;;;;;;5063953;28;1339;-61
2020/12/13 10:42:21;;;;;;;;;;;22.20;54.10;;;;;;5052742;28;1319;-62
2020/12/13 10:44:47;;;;;;;;;;;22.20;54.10;;;;;;5070539;28;1358;-63
2020/12/13 10:47:12;;;;;;;;;;;22.20;54.10;;;;;;5047524;28;1052;-63
2020/12/13 10:49:40;;;;;;;;;;;22.20;54.20;;;;;;5070276;28;1312;-62
2020/12/13 10:52:05;;;;;;;;;;;22.20;54.10;;;;;;5072561;28;1175;-62
2020/12/13 10:54:31;;;;;;;;;;;22.20;54.10;;;;;;5073396;28;1040;-62
2020/12/13 10:56:56;;;;;;;;;;;22.30;54.20;;;;;;5073572;28;1949;-63
2020/12/13 10:59:22;;;;;;;;;;;22.30;54.10;;;;;;5074546;28;1369;-61
2020/12/13 11:01:47;;;;;;;;;;;22.30;54.10;;;;;;5075700;28;1361;-62
2020/12/13 11:04:13;;;;;;;;;;;22.30;54.10;;;;;;5056131;28;1320;-64
2020/12/13 11:06:38;;;;;;;;;;;22.30;54.10;;;;;;5063649;28;1091;-61
2020/12/13 11:09:04;;;;;;;;;;;22.30;54.10;;;;;;5071164;28;1295;-62
2020/12/13 11:11:32;;;;;;;;;;;22.30;54.10;;;;;;5073709;28;1111;-61
2020/12/13 11:13:58;;;;;;;;;;;22.30;54.00;;;;;;5057261;28;1338;-62
2020/12/13 11:16:23;;;;;;;;;;;22.30;54.00;;;;;;5055433;28;1890;-63
2020/12/13 11:18:49;;;;;;;;;;;22.30;54.00;;;;;;5039203;28;1288;-62
2020/12/13 11:21:14;;;;;;;;;;;22.30;54.00;;;;;;5073707;28;1426;-62
2020/12/13 11:23:40;;;;;;;;;;;22.30;54.00;;;;;;5073056;28;1295;-62
2020/12/13 11:26:05;;;;;;;;;;;22.30;54.00;;;;;;5072646;28;1266;-61
2020/12/13 11:28:30;;;;;;;;;;;22.30;54.00;;;;;;5055414;28;1423;-62
2020/12/13 11:30:56;;;;;;;;;;;22.30;54.00;;;;;;5073620;28;1280;-61
2020/12/13 11:33:21;;;;;;;;;;;22.40;54.00;;;;;;5074239;28;1470;-62
2020/12/13 11:35:47;;;;;;;;;;;22.30;54.00;;;;;;5073554;28;1967;-61
2020/12/13 11:38:12;;;;;;;;;;;22.30;54.00;;;;;;5054908;28;2039;-62
2020/12/13 11:40:38;;;;;;;;;;;22.30;54.00;;;;;;5055299;28;1274;-63
2020/12/13 11:43:03;;;;;;;;;;;22.30;54.00;;;;;;5055298;28;1312;-61
2020/12/13 11:45:29;;;;;;;;;;;22.30;54.00;;;;;;5054669;28;855;-62
2020/12/13 11:47:54;;;;;;;;;;;22.30;54.00;;;;;;5055033;28;1319;-62
2020/12/13 11:50:20;;;;;;;;;;;22.30;54.00;;;;;;5073288;28;1317;-63
2020/12/13 11:52:46;;;;;;;;;;;22.30;54.00;;;;;;5055076;28;1273;-62
2020/12/13 11:55:11;;;;;;;;;;;22.30;54.00;;;;;;5072842;28;1076;-63
2020/12/13 11:57:36;;;;;;;;;;;22.30;54.00;;;;;;5073934;28;1910;-59
2020/12/13 12:00:03;;;;;;;;;;;22.30;54.00;;;;;;5054867;28;1200;-62
2020/12/13 12:02:29;;;;;;;;;;;22.30;54.00;;;;;;5073575;28;1342;-62
2020/12/13 12:04:54;;;;;;;;;;;22.40;54.00;;;;;;5072609;28;1316;-61
2020/12/13 12:07:19;;;;;;;;;;;22.30;53.90;;;;;;5072350;28;1283;-61
2020/12/13 12:09:46;;;;;;;;;;;22.40;54.00;;;;;;5054354;28;1354;-61
2020/12/13 12:12:11;;;;;;;;;;;22.30;53.90;;;;;;5073218;28;1370;-61
2020/12/13 12:14:37;;;;;;;;;;;22.40;54.00;;;;;;5066103;28;1131;-63
2020/12/13 12:17:03;;;;;;;;;;;22.30;53.90;;;;;;5073562;28;1905;-59
2020/12/13 12:19:28;;;;;;;;;;;22.40;54.00;;;;;;5073478;28;1379;-59
2020/12/13 12:21:55;;;;;;;;;;;22.30;54.00;;;;;;5073574;28;1327;-61
2020/12/13 12:24:20;;;;;;;;;;;22.30;54.00;;;;;;5073126;28;1287;-63
2020/12/13 12:26:51;;;;;;;;;;;22.30;54.00;;;;;;5073696;28;1346;-63
2020/12/13 12:29:19;;;;;;;;;;;22.30;54.00;;;;;;5074133;28;1355;-62
2020/12/13 12:31:45;;;;;;;;;;;22.30;54.10;;;;;;5054556;28;1972;-64
2020/12/13 12:34:11;;;;;;;;;;;22.30;54.10;;;;;;5051089;28;992;-64
2020/12/13 12:36:37;;;;;;;;;;;22.30;54.10;;;;;;5055304;28;1995;-65
2020/12/13 12:39:03;;;;;;;;;;;22.30;54.20;;;;;;5074207;28;1350;-66
2020/12/13 12:41:28;;;;;;;;;;;22.30;54.20;;;;;;5055629;28;1273;-66
2020/12/13 12:43:53;;;;;;;;;;;22.20;54.20;;;;;;5055709;28;1369;-65
2020/12/13 12:46:19;;;;;;;;;;;22.20;54.20;;;;;;5055797;28;1304;-66
2020/12/13 12:48:47;;;;;;;;;;;22.20;54.30;;;;;;5056109;28;1394;-65
2020/12/13 12:51:13;;;;;;;;;;;22.20;54.10;;;;;;5055790;28;1335;-65
2020/12/13 12:53:39;;;;;;;;;;;22.20;54.10;;;;;;5055257;28;1303;-65
2020/12/13 12:56:06;;;;;;;;;;;22.20;54.20;;;;;;5072959;28;1981;-65
2020/12/13 12:58:41;;;;;;;;;;;22.20;54.30;;;;;;5055964;28;1334;-65
2020/12/13 13:01:09;;;;;;;;;;;22.10;54.30;;;;;;5055798;28;1447;-64
2020/12/13 13:03:35;;;;;;;;;;;22.10;54.30;;;;;;5072996;28;1342;-65
2020/12/13 13:08:45;;;;;;;;;;;22.10;54.40;;;;;;5073112;28;1298;-64
2020/12/13 13:11:22;;;;;;;;;;;22.10;54.50;;;;;;5057866;28;1317;-64
2020/12/13 13:13:50;;;;;;;;;;;22.10;54.50;;;;;;5072830;28;1410;-64
2020/12/13 13:16:15;;;;;;;;;;;22.10;54.50;;;;;;5072636;28;1963;-65
2020/12/13 13:18:42;;;;;;;;;;;22.00;54.50;;;;;;5054235;28;1615;-65
2020/12/13 13:21:07;;;;;;;;;;;22.00;54.50;;;;;;5072394;28;1165;-65
2020/12/13 13:23:33;;;;;;;;;;;22.00;54.60;;;;;;5072751;28;1352;-65
2020/12/13 13:25:58;;;;;;;;;;;22.00;54.60;;;;;;5043861;28;1221;-65
2020/12/13 13:28:23;;;;;;;;;;;22.00;54.70;;;;;;5062479;28;1236;-66
2020/12/13 13:30:49;;;;;;;;;;;21.90;54.70;;;;;;5045800;28;1357;-64
2020/12/13 13:33:14;;;;;;;;;;;21.90;54.70;;;;;;5046539;28;1388;-65
2020/12/13 13:35:40;;;;;;;;;;;21.90;54.80;;;;;;5062886;28;1910;-67
2020/12/13 13:38:06;;;;;;;;;;;21.90;54.80;;;;;;5065914;28;1316;-67
2020/12/13 13:40:31;;;;;;;;;;;21.90;54.90;;;;;;5048460;28;1442;-67
2020/12/13 13:43:03;;;;;;;;;;;21.90;54.90;;;;;;5046798;28;1289;-67
2020/12/13 13:50:44;;;;;;;;;;;21.80;55.00;;;;;;5060874;28;1292;-67
2020/12/13 13:53:13;;;;;;;;;;;21.80;55.00;;;;;;5045812;28;1853;-67
2020/12/13 13:55:44;;;;;;;;;;;21.80;55.10;;;;;;5047891;28;1067;-67
2020/12/13 13:58:10;;;;;;;;;;;21.80;55.10;;;;;;5065141;28;1259;-65
2020/12/13 14:00:36;;;;;;;;;;;21.70;55.00;;;;;;5050676;28;1371;-67
2020/12/13 14:03:01;;;;;;;;;;;21.70;55.10;;;;;;5050486;28;1324;-66
2020/12/13 14:05:27;;;;;;;;;;;21.70;55.20;;;;;;5059841;28;1319;-66
2020/12/13 14:08:25;;;;;;;;;;;21.70;55.20;;;;;;5059542;28;1227;-66
2020/12/13 14:10:51;;;;;;;;;;;21.70;55.20;;;;;;5060250;28;1394;-66
2020/12/13 14:13:16;;;;;;;;;;;21.70;55.20;;;;;;5044886;28;1073;-66
2020/12/13 14:15:42;;;;;;;;;;;21.70;55.30;;;;;;5070718;28;1894;-66
2020/12/13 14:18:07;;;;;;;;;;;21.70;55.30;;;;;;5053526;28;1323;-65
2020/12/13 14:20:33;;;;;;;;;;;21.70;55.30;;;;;;5070731;28;1322;-67
2020/12/13 14:22:59;;;;;;;;;;;21.70;55.30;;;;;;5052986;28;1366;-67
2020/12/13 14:25:24;;;;;;;;;;;21.70;55.30;;;;;;5070616;28;1076;-67
2020/12/13 14:27:50;;;;;;;;;;;21.70;55.40;;;;;;5056309;28;1319;-65
2020/12/13 14:30:15;;;;;;;;;;;21.70;55.40;;;;;;5057093;28;1386;-64
2020/12/13 14:32:41;;;;;;;;;;;21.70;56.00;;;;;;5074809;28;1740;-65
2020/12/13 14:35:07;;;;;;;;;;;21.60;55.40;;;;;;5043617;28;1262;-66
2020/12/13 14:37:33;;;;;;;;;;;21.60;55.40;;;;;;5072956;28;1905;-66
2020/12/13 14:39:58;;;;;;;;;;;21.60;55.50;;;;;;5063017;28;1285;-66